Terminal Aerodrome Forecast
Issued by NWS Buffalo, NY

Home | Current Version | Previous Version | Text Only | Print | Product List | Glossary On
Versions: 1 2 3 4 5 6 7 8 9 10 11 12 13 14 15 16 17 18 19 20 21 22 23 24 25
776
FTUS41 KBUF 231505 AAA
TAFART
TAF AMD
KART 231505Z 2315/2412 19012G20KT P6SM VCSH OVC025
     FM231600 24015KT P6SM BKN012
     FM240100 27005KT P6SM BKN007
     FM240500 03005KT P6SM BKN015
     FM240800 03005KT P6SM VCSH BKN025=

USA.gov is the U.S. government's official web portal to all federal, state and local government web resources and services.